Time;durP1;ratioP1;P1;durP2;ratioP2;P2;SDS_P1;SDS_P2;PMS_P1;PMS_P2;Temp;Humidity;BMP_temperature;BMP_pressure;BME280_temperature;BME280_humidity;BME280_pressure;Samples;Min_cycle;Max_cycle;Signal;HPM_P1;HPM_P2
2021/10/07 00:00:42;;;;;;;73.00;33.58;;;11.30;99.90;;;;;;5050471;28;20028;-85
2021/10/07 00:03:08;;;;;;;78.15;32.65;;;11.30;99.90;;;;;;5042537;28;20024;-85
2021/10/07 00:05:33;;;;;;;67.43;33.00;;;11.30;99.90;;;;;;5024790;28;20096;-85
2021/10/07 00:07:59;;;;;;;81.13;31.15;;;11.40;99.90;;;;;;5032282;28;20674;-84
2021/10/07 00:10:25;;;;;;;68.43;32.50;;;11.40;99.90;;;;;;5034045;28;20024;-85
2021/10/07 00:12:50;;;;;;;64.95;32.80;;;11.40;99.90;;;;;;5046909;28;20039;-85
2021/10/07 00:15:16;;;;;;;64.78;28.30;;;11.40;99.90;;;;;;5036265;28;20031;-85
2021/10/07 00:17:46;;;;;;;52.15;25.10;;;11.40;99.90;;;;;;5040774;28;20036;-84
2021/10/07 00:20:13;;;;;;;54.47;25.13;;;11.50;99.90;;;;;;5040509;28;20040;-85
2021/10/07 00:22:39;;;;;;;63.33;25.73;;;11.40;99.90;;;;;;5030278;28;20480;-85
2021/10/07 00:25:07;;;;;;;62.88;24.40;;;11.40;99.90;;;;;;5034441;28;20032;-85
2021/10/07 00:27:36;;;;;;;48.85;23.50;;;11.40;99.90;;;;;;5034998;28;20032;-85
2021/10/07 00:30:06;;;;;;;59.97;25.00;;;11.40;99.90;;;;;;5034136;28;20059;-85
2021/10/07 00:32:37;;;;;;;62.03;24.67;;;11.40;99.90;;;;;;5035377;28;20025;-85
2021/10/07 00:40:06;;;;;;;52.80;23.85;;;11.40;99.90;;;;;;5058326;28;20067;-85
2021/10/07 00:42:32;;;;;;;55.00;21.77;;;11.40;99.90;;;;;;5023764;28;20392;-84
2021/10/07 00:44:57;;;;;;;51.05;21.95;;;11.40;99.90;;;;;;5049871;28;20097;-85
2021/10/07 00:47:23;;;;;;;32.33;18.60;;;11.40;99.90;;;;;;5042095;28;20032;-85
2021/10/07 00:49:48;;;;;;;41.80;19.58;;;11.30;99.90;;;;;;5050660;28;20035;-85
2021/10/07 00:52:18;;;;;;;35.75;18.75;;;11.30;99.90;;;;;;5029248;28;20029;-85
2021/10/07 00:54:48;;;;;;;42.38;19.40;;;11.20;99.90;;;;;;5032461;28;20032;-85
2021/10/07 00:57:18;;;;;;;36.33;18.75;;;11.20;99.90;;;;;;5051434;28;20566;-85
2021/10/07 00:59:44;;;;;;;34.40;18.33;;;11.10;99.90;;;;;;5035406;28;20523;-85
2021/10/07 01:02:16;;;;;;;38.50;17.38;;;11.10;99.90;;;;;;5043488;28;20024;-85
2021/10/07 01:04:41;;;;;;;26.45;16.05;;;11.00;99.90;;;;;;5033547;28;20035;-85
2021/10/07 01:07:07;;;;;;;25.77;15.10;;;11.00;99.90;;;;;;5061529;28;20049;-85
2021/10/07 01:09:33;;;;;;;26.60;15.02;;;11.00;99.90;;;;;;5040083;28;20683;-85
2021/10/07 01:11:59;;;;;;;26.23;16.50;;;11.10;99.90;;;;;;5041072;28;20400;-85
2021/10/07 01:14:47;;;;;;;36.95;18.05;;;11.10;99.90;;;;;;5041742;28;20033;-85
2021/10/07 01:17:15;;;;;;;29.52;16.33;;;11.10;99.90;;;;;;5053504;28;20134;-85
2021/10/07 01:19:42;;;;;;;28.10;17.27;;;11.10;99.90;;;;;;5054254;28;20028;-85
2021/10/07 01:22:07;;;;;;;42.58;19.08;;;11.10;99.90;;;;;;5053850;28;20032;-85
2021/10/07 01:24:33;;;;;;;29.55;15.38;;;11.00;99.90;;;;;;5053919;28;20039;-85
2021/10/07 01:26:59;;;;;;;41.83;20.65;;;11.00;99.90;;;;;;5064969;28;20484;-85
2021/10/07 01:29:24;;;;;;;44.33;20.48;;;11.00;99.90;;;;;;5054770;28;20031;-85
2021/10/07 01:31:50;;;;;;;45.45;21.48;;;10.90;99.90;;;;;;5037950;28;20032;-85
2021/10/07 01:34:26;;;;;;;37.85;20.35;;;10.90;99.90;;;;;;5042410;28;20050;-85
2021/10/07 01:36:52;;;;;;;46.92;21.30;;;10.90;99.90;;;;;;5035331;28;20048;-85
2021/10/07 01:39:18;;;;;;;50.95;23.27;;;10.90;99.90;;;;;;5046288;28;20503;-85
2021/10/07 01:41:53;;;;;;;59.40;23.67;;;10.90;99.90;;;;;;5050466;28;20111;-85
2021/10/07 01:44:22;;;;;;;;;;;10.90;99.90;;;;;;5001285;28;20128;-85
2021/10/07 01:46:47;;;;;;;47.25;21.65;;;11.00;99.90;;;;;;5064711;28;20414;-85
2021/10/07 01:49:13;;;;;;;52.03;22.75;;;11.00;99.90;;;;;;5053195;28;20028;-85
2021/10/07 01:51:38;;;;;;;49.35;22.70;;;11.10;99.90;;;;;;5055521;28;20111;-85
2021/10/07 01:54:04;;;;;;;52.65;23.88;;;11.00;99.90;;;;;;5042694;28;20035;-85
2021/10/07 01:56:30;;;;;;;36.25;19.20;;;11.00;99.90;;;;;;5038202;28;20055;-85
2021/10/07 01:58:56;;;;;;;55.17;23.58;;;11.00;99.90;;;;;;5037545;28;20127;-85
2021/10/07 02:01:22;;;;;;;36.38;18.85;;;11.00;99.90;;;;;;5038615;28;20051;-85
2021/10/07 02:03:47;;;;;;;56.58;24.98;;;10.90;99.90;;;;;;5054782;28;20480;-85
2021/10/07 02:06:13;;;;;;;59.63;24.67;;;11.00;99.90;;;;;;5036969;28;20087;-84
2021/10/07 02:08:39;;;;;;;54.28;24.52;;;11.00;99.90;;;;;;5040244;28;20036;-85
2021/10/07 02:11:04;;;;;;;46.47;20.63;;;11.10;99.90;;;;;;5035979;28;20115;-85
2021/10/07 02:13:30;;;;;;;66.63;25.02;;;11.10;99.90;;;;;;5035789;28;20020;-85
2021/10/07 02:15:55;;;;;;;55.03;23.90;;;11.10;99.90;;;;;;5036232;28;20476;-85
2021/10/07 02:18:21;;;;;;;56.60;24.33;;;11.10;99.90;;;;;;5048017;28;20016;-85
2021/10/07 02:20:47;;;;;;;60.22;25.65;;;11.00;99.90;;;;;;5042605;28;20516;-85
2021/10/07 02:23:12;;;;;;;57.38;24.90;;;11.10;99.90;;;;;;5037894;28;20395;-86
2021/10/07 02:25:38;;;;;;;57.83;25.73;;;11.10;99.90;;;;;;5034865;28;20024;-85
2021/10/07 02:28:03;;;;;;;58.78;23.92;;;11.10;99.90;;;;;;5038938;28;20024;-85
2021/10/07 02:30:29;;;;;;;57.35;23.95;;;11.10;99.90;;;;;;5035849;28;20472;-86
2021/10/07 02:32:54;;;;;;;63.85;26.08;;;11.10;99.90;;;;;;5036955;28;20028;-86
2021/10/07 02:35:23;;;;;;;55.67;24.83;;;11.20;99.90;;;;;;5038122;28;20376;-86
2021/10/07 02:37:49;;;;;;;58.95;26.35;;;11.10;99.90;;;;;;5036180;28;20032;-86
2021/10/07 02:40:14;;;;;;;63.60;25.23;;;11.00;99.90;;;;;;5042967;28;20442;-86
2021/10/07 02:42:40;;;;;;;67.63;25.33;;;11.10;99.90;;;;;;5038554;28;20032;-86
2021/10/07 02:45:07;;;;;;;56.40;25.25;;;10.90;99.90;;;;;;5037598;28;20036;-85
2021/10/07 02:47:33;;;;;;;66.35;24.25;;;10.90;99.90;;;;;;5053565;28;20036;-85
2021/10/07 02:49:58;;;;;;;49.42;22.90;;;11.00;99.90;;;;;;5035495;28;20032;-85
2021/10/07 02:52:24;;;;;;;60.90;24.60;;;11.00;99.90;;;;;;5031816;28;20028;-86
2021/10/07 02:54:49;;;;;;;55.83;24.23;;;10.90;99.90;;;;;;5044756;28;20044;-85
2021/10/07 02:57:15;;;;;;;58.20;25.75;;;10.90;99.90;;;;;;5039818;28;20036;-85
2021/10/07 02:59:40;;;;;;;50.95;23.20;;;10.70;99.90;;;;;;5036141;28;20372;-85
2021/10/07 03:02:06;;;;;;;42.17;22.77;;;10.70;99.90;;;;;;5049616;28;20059;-85
2021/10/07 03:04:32;;;;;;;45.67;22.45;;;10.60;99.90;;;;;;5047935;28;20079;-85
2021/10/07 03:06:57;;;;;;;47.72;23.35;;;10.60;99.90;;;;;;5029900;28;20529;-85
2021/10/07 03:09:23;;;;;;;46.90;23.23;;;10.60;99.90;;;;;;5056803;28;20494;-85
2021/10/07 03:11:48;;;;;;;46.20;22.85;;;10.40;99.90;;;;;;5036392;28;20028;-85
2021/10/07 03:14:14;;;;;;;50.72;23.63;;;10.40;99.90;;;;;;5040065;28;20380;-85
2021/10/07 03:16:39;;;;;;;58.33;26.35;;;10.40;99.90;;;;;;5029261;28;20484;-85
2021/10/07 03:19:05;;;;;;;43.03;21.55;;;10.40;99.90;;;;;;5053388;28;20035;-85
2021/10/07 03:21:30;;;;;;;54.10;22.40;;;10.30;99.90;;;;;;5035214;28;20115;-84
2021/10/07 03:23:56;;;;;;;51.53;23.23;;;10.20;99.90;;;;;;5035625;28;20024;-85
2021/10/07 03:26:22;;;;;;;58.28;24.33;;;10.10;99.90;;;;;;5042946;28;20058;-85
2021/10/07 03:28:47;;;;;;;57.67;24.88;;;10.10;99.90;;;;;;5037705;28;20024;-85
2021/10/07 03:31:13;;;;;;;57.92;23.38;;;10.10;99.90;;;;;;5036200;28;20034;-85
2021/10/07 03:33:38;;;;;;;58.40;24.65;;;10.10;99.90;;;;;;5034265;28;20054;-85
2021/10/07 03:36:04;;;;;;;73.82;26.30;;;10.10;99.90;;;;;;5037783;28;20063;-85
2021/10/07 03:38:29;;;;;;;65.10;25.35;;;10.10;99.90;;;;;;5053456;28;20373;-85
2021/10/07 03:40:57;;;;;;;72.30;27.05;;;10.10;99.90;;;;;;5041641;28;20032;-85
2021/10/07 03:43:28;;;;;;;70.70;27.20;;;10.10;99.90;;;;;;5055998;28;20718;-85
2021/10/07 03:45:55;;;;;;;66.90;25.75;;;10.10;99.90;;;;;;5045499;28;20158;-85
2021/10/07 03:48:21;;;;;;;69.45;27.00;;;10.20;99.90;;;;;;5048514;28;20503;-85
2021/10/07 03:50:46;;;;;;;84.90;28.05;;;10.30;99.90;;;;;;5038463;28;20081;-85
2021/10/07 03:53:12;;;;;;;72.13;26.13;;;10.30;99.90;;;;;;5032624;28;20400;-85
2021/10/07 03:55:37;;;;;;;84.93;29.38;;;10.30;99.90;;;;;;5021915;28;20013;-85
2021/10/07 03:58:03;;;;;;;73.97;24.90;;;10.30;99.90;;;;;;5045427;28;20059;-84
2021/10/07 04:00:29;;;;;;;84.60;29.20;;;10.30;99.90;;;;;;5049330;28;20131;-85
2021/10/07 04:02:57;;;;;;;90.25;26.50;;;10.30;99.90;;;;;;5051482;28;20028;-85
2021/10/07 04:05:23;;;;;;;67.03;25.13;;;10.30;99.90;;;;;;5067598;28;20483;-85
2021/10/07 04:07:49;;;;;;;76.65;26.30;;;10.30;99.90;;;;;;5035279;28;20043;-85
2021/10/07 04:10:14;;;;;;;80.10;25.67;;;10.30;99.90;;;;;;5035414;28;20078;-85
2021/10/07 04:12:40;;;;;;;81.05;27.30;;;10.20;99.90;;;;;;5037858;28;20112;-85
2021/10/07 04:15:05;;;;;;;133.35;29.63;;;10.20;99.90;;;;;;5032044;28;20032;-85
2021/10/07 04:17:31;;;;;;;280.30;33.53;;;10.20;99.90;;;;;;5034089;28;20844;-84
2021/10/07 04:19:57;;;;;;;261.00;32.90;;;10.10;99.90;;;;;;5028738;28;20075;-85
2021/10/07 04:22:22;;;;;;;192.68;27.42;;;10.10;99.90;;;;;;5037304;28;20041;-85
2021/10/07 04:24:48;;;;;;;154.65;26.80;;;10.00;99.90;;;;;;5033860;28;20036;-86
2021/10/07 04:27:14;;;;;;;61.22;23.88;;;9.80;99.90;;;;;;5067205;28;20090;-85
2021/10/07 04:29:42;;;;;;;522.03;34.40;;;9.70;99.90;;;;;;5034782;28;20035;-84
2021/10/07 04:32:07;;;;;;;580.85;33.30;;;9.70;99.90;;;;;;5036263;28;20028;-85
2021/10/07 04:34:33;;;;;;;594.25;30.70;;;9.60;99.90;;;;;;5034798;28;20399;-86
2021/10/07 04:36:58;;;;;;;735.63;37.00;;;9.60;99.90;;;;;;5053131;28;20488;-86
2021/10/07 04:39:24;;;;;;;664.75;35.30;;;9.60;99.90;;;;;;5039333;28;20543;-85
2021/10/07 04:41:49;;;;;;;703.45;34.72;;;9.60;99.90;;;;;;5053280;28;20040;-86
2021/10/07 04:44:15;;;;;;;667.60;36.90;;;9.60;99.90;;;;;;5038335;28;20032;-85
2021/10/07 04:46:41;;;;;;;26.75;12.32;;;9.60;99.90;;;;;;5054083;28;20032;-86
2021/10/07 04:49:07;;;;;;;17.52;11.32;;;9.60;99.90;;;;;;5037487;28;20090;-85
2021/10/07 04:51:32;;;;;;;17.75;11.98;;;9.50;99.90;;;;;;5041648;28;20024;-86
2021/10/07 04:53:58;;;;;;;19.42;12.45;;;9.50;99.90;;;;;;5062891;28;20388;-85
2021/10/07 04:56:23;;;;;;;459.65;28.67;;;9.50;99.90;;;;;;5038157;28;20595;-86
2021/10/07 04:58:49;;;;;;;337.27;19.75;;;9.40;99.90;;;;;;5037865;28;20043;-85
2021/10/07 05:01:17;;;;;;;485.75;28.02;;;9.50;99.90;;;;;;5037119;28;20028;-87
2021/10/07 05:03:43;;;;;;;93.97;13.65;;;9.50;99.90;;;;;;5041261;28;20020;-86
2021/10/07 05:06:09;;;;;;;18.88;11.25;;;9.50;99.90;;;;;;5040905;28;20120;-86
2021/10/07 05:08:34;;;;;;;50.13;12.25;;;9.50;99.90;;;;;;5037044;28;20107;-86
2021/10/07 05:11:00;;;;;;;33.65;13.70;;;9.60;99.90;;;;;;5054042;28;20024;-85
2021/10/07 05:13:25;;;;;;;27.23;14.10;;;9.60;99.90;;;;;;5049873;28;20021;-85
2021/10/07 05:15:51;;;;;;;28.33;13.95;;;9.60;99.90;;;;;;5032854;28;20020;-86
2021/10/07 05:18:17;;;;;;;21.65;11.57;;;9.70;99.90;;;;;;5053150;28;20028;-85
2021/10/07 05:20:45;;;;;;;21.88;11.57;;;9.70;99.90;;;;;;5037814;28;20071;-85
2021/10/07 05:23:11;;;;;;;154.55;23.58;;;9.70;99.90;;;;;;5039499;28;20555;-86
2021/10/07 05:25:37;;;;;;;51.00;14.57;;;9.80;99.90;;;;;;5035660;28;20028;-85
2021/10/07 05:28:03;;;;;;;23.38;12.63;;;9.80;99.90;;;;;;5039205;28;20037;-86
2021/10/07 05:30:29;;;;;;;21.30;12.23;;;9.90;99.90;;;;;;5045888;28;20020;-87
2021/10/07 05:32:54;;;;;;;47.28;14.15;;;10.00;99.90;;;;;;5050227;28;20035;-86
2021/10/07 05:35:20;;;;;;;211.10;20.65;;;9.90;99.90;;;;;;5053095;28;20069;-86
2021/10/07 05:37:46;;;;;;;24.45;12.30;;;9.90;99.90;;;;;;5042577;28;20032;-86
2021/10/07 05:40:12;;;;;;;516.88;30.80;;;9.80;99.90;;;;;;5034948;28;20035;-86
2021/10/07 05:42:38;;;;;;;470.75;33.97;;;9.80;99.90;;;;;;5043914;28;20487;-87
2021/10/07 05:45:04;;;;;;;157.25;17.95;;;9.80;99.90;;;;;;5047086;28;20024;-86
2021/10/07 05:47:29;;;;;;;613.42;37.90;;;9.80;99.90;;;;;;5042621;28;20399;-86
2021/10/07 05:49:55;;;;;;;107.45;18.95;;;9.80;99.90;;;;;;5034242;28;20033;-87
2021/10/07 05:52:22;;;;;;;28.30;14.30;;;9.80;99.90;;;;;;5040223;28;20024;-86
2021/10/07 05:54:47;;;;;;;33.90;12.70;;;9.90;99.90;;;;;;5042198;28;20033;-87
2021/10/07 05:57:13;;;;;;;361.27;26.40;;;9.90;99.90;;;;;;5040821;28;20464;-87
2021/10/07 05:59:38;;;;;;;514.63;32.50;;;10.00;99.90;;;;;;5041726;28;20434;-86
2021/10/07 06:02:04;;;;;;;550.13;39.63;;;9.90;99.90;;;;;;5051644;28;20032;-86
2021/10/07 06:04:30;;;;;;;600.92;41.05;;;9.90;99.90;;;;;;5037365;28;20079;-86
2021/10/07 06:06:55;;;;;;;628.03;43.42;;;9.90;99.90;;;;;;5037776;28;20375;-85
2021/10/07 06:09:21;;;;;;;288.88;23.98;;;9.90;99.90;;;;;;5033686;28;20546;-86
2021/10/07 06:11:46;;;;;;;671.83;40.38;;;9.90;99.90;;;;;;5037978;28;20094;-86
2021/10/07 06:14:12;;;;;;;580.30;36.17;;;10.00;99.90;;;;;;5037277;28;20144;-86
2021/10/07 06:16:39;;;;;;;757.80;43.92;;;10.00;99.90;;;;;;5038274;28;20488;-86
2021/10/07 06:19:09;;;;;;;310.75;28.77;;;10.00;99.90;;;;;;5038543;28;20033;-86
2021/10/07 06:21:35;;;;;;;696.22;45.83;;;10.10;99.90;;;;;;5053653;28;20032;-86
2021/10/07 06:24:00;;;;;;;51.83;15.45;;;10.10;99.90;;;;;;5036577;28;20529;-86
2021/10/07 06:26:26;;;;;;;321.77;30.42;;;10.10;99.90;;;;;;5042382;28;20123;-86
2021/10/07 06:28:51;;;;;;;561.90;39.72;;;10.10;99.90;;;;;;5035686;28;20563;-86
2021/10/07 06:31:17;;;;;;;371.08;32.33;;;10.20;99.90;;;;;;5036590;28;20489;-87
2021/10/07 06:33:43;;;;;;;518.70;40.70;;;10.20;99.90;;;;;;5038748;28;20115;-86
2021/10/07 06:36:08;;;;;;;550.10;36.33;;;10.20;99.90;;;;;;5039014;28;20048;-86
2021/10/07 06:38:36;;;;;;;612.95;38.83;;;10.30;99.90;;;;;;5034289;28;20400;-86
2021/10/07 06:41:01;;;;;;;630.00;39.05;;;10.30;99.90;;;;;;5038902;28;20026;-86
2021/10/07 06:43:27;;;;;;;453.25;31.88;;;10.40;99.90;;;;;;5052790;28;20032;-86
2021/10/07 06:45:53;;;;;;;537.92;36.40;;;10.40;99.90;;;;;;5043716;28;20028;-86
2021/10/07 06:48:20;;;;;;;502.13;33.22;;;10.40;99.90;;;;;;5063830;28;20508;-86
2021/10/07 06:50:46;;;;;;;508.15;35.47;;;10.40;99.90;;;;;;5034388;28;20048;-86
2021/10/07 06:53:14;;;;;;;440.90;36.92;;;10.50;99.90;;;;;;5052330;28;20064;-86
2021/10/07 06:55:46;;;;;;;443.63;32.42;;;10.50;99.90;;;;;;5035621;28;20021;-86
2021/10/07 06:58:13;;;;;;;308.27;32.20;;;10.50;99.90;;;;;;5048967;28;20048;-86
2021/10/07 07:00:42;;;;;;;369.02;31.45;;;10.50;99.90;;;;;;5034588;28;20075;-87
2021/10/07 07:03:08;;;;;;;165.32;25.83;;;10.60;99.90;;;;;;5032037;28;20107;-86
2021/10/07 07:05:34;;;;;;;349.42;34.95;;;10.60;99.90;;;;;;5035525;28;20111;-86
2021/10/07 07:08:05;;;;;;;300.95;35.92;;;10.60;99.90;;;;;;5042274;28;20074;-86
2021/10/07 07:10:31;;;;;;;420.40;38.80;;;10.70;99.90;;;;;;5029543;28;20028;-86
2021/10/07 07:12:57;;;;;;;71.07;20.70;;;10.80;99.90;;;;;;5038722;28;20031;-86
2021/10/07 07:15:22;;;;;;;110.70;22.17;;;10.80;99.90;;;;;;5033441;28;20028;-86
2021/10/07 07:17:48;;;;;;;434.77;38.47;;;10.90;99.90;;;;;;5038040;28;20682;-86
2021/10/07 07:20:14;;;;;;;389.45;37.67;;;11.00;99.90;;;;;;5034579;28;20043;-86
2021/10/07 07:22:48;;;;;;;448.55;42.65;;;11.00;99.90;;;;;;5036180;28;20031;-86
2021/10/07 07:25:13;;;;;;;165.80;25.25;;;11.10;99.90;;;;;;5036594;28;20042;-86
2021/10/07 07:27:39;;;;;;;433.50;39.60;;;11.10;99.90;;;;;;5058770;28;20032;-87
2021/10/07 07:30:05;;;;;;;169.73;25.60;;;11.10;99.90;;;;;;5033531;28;20419;-86
2021/10/07 07:32:31;;;;;;;284.45;32.15;;;11.10;99.90;;;;;;5039910;28;20039;-86
2021/10/07 07:34:56;;;;;;;98.25;22.77;;;11.10;99.90;;;;;;5038721;28;20028;-85
2021/10/07 07:37:22;;;;;;;294.23;31.08;;;11.20;99.90;;;;;;5034051;28;20043;-86
2021/10/07 07:39:48;;;;;;;199.93;27.42;;;11.30;99.90;;;;;;5036322;28;20035;-86
2021/10/07 07:42:20;;;;;;;129.52;22.88;;;11.30;99.90;;;;;;5068904;28;20502;-86
2021/10/07 07:44:45;;;;;;;109.10;21.63;;;11.40;99.90;;;;;;5035577;28;20131;-86
2021/10/07 07:47:11;;;;;;;110.50;20.33;;;11.40;99.90;;;;;;5051722;28;20111;-86
2021/10/07 07:49:44;;;;;;;88.97;23.60;;;11.40;99.90;;;;;;5032008;28;20505;-86
2021/10/07 07:52:10;;;;;;;114.47;22.10;;;11.40;99.90;;;;;;5029784;28;20107;-86
2021/10/07 07:54:36;;;;;;;129.00;26.17;;;11.50;99.90;;;;;;5033587;28;20456;-86
2021/10/07 07:57:01;;;;;;;103.88;25.73;;;11.60;99.90;;;;;;5032396;28;20063;-86
2021/10/07 07:59:35;;;;;;;129.82;27.77;;;11.70;99.90;;;;;;5037188;28;20107;-86
2021/10/07 08:02:00;;;;;;;86.38;24.45;;;11.60;99.90;;;;;;5050855;28;20027;-86
2021/10/07 08:04:26;;;;;;;91.97;23.67;;;11.70;99.90;;;;;;5036753;28;20682;-86
2021/10/07 08:06:54;;;;;;;94.78;25.50;;;11.70;99.90;;;;;;5034992;28;20059;-86
2021/10/07 08:09:22;;;;;;;82.05;23.23;;;11.80;99.90;;;;;;5030617;28;20383;-86
2021/10/07 08:11:48;;;;;;;77.95;24.80;;;11.80;99.90;;;;;;5037371;28;20467;-86
2021/10/07 08:14:13;;;;;;;58.70;18.52;;;11.90;99.90;;;;;;5051728;28;20126;-86
2021/10/07 08:16:39;;;;;;;43.13;16.45;;;11.90;99.90;;;;;;5034119;28;20061;-86
2021/10/07 08:19:05;;;;;;;54.08;18.45;;;12.00;99.90;;;;;;5038240;28;20545;-86
2021/10/07 08:21:30;;;;;;;64.70;21.98;;;12.10;99.90;;;;;;5033787;28;20399;-86
2021/10/07 08:23:58;;;;;;;57.83;19.17;;;12.30;99.90;;;;;;5034951;28;21211;-86
2021/10/07 08:26:24;;;;;;;73.40;26.92;;;12.40;99.90;;;;;;5042920;28;20032;-86
2021/10/07 08:28:49;;;;;;;66.05;24.88;;;12.50;99.90;;;;;;5046866;28;20061;-86
2021/10/07 08:31:15;;;;;;;66.20;24.70;;;12.70;99.90;;;;;;5055985;28;20024;-87
2021/10/07 08:33:41;;;;;;;52.58;20.88;;;12.90;99.90;;;;;;5041765;28;20032;-85
2021/10/07 08:36:07;;;;;;;43.88;18.48;;;12.80;99.90;;;;;;5037972;28;20028;-86
2021/10/07 08:38:32;;;;;;;34.95;16.40;;;12.80;99.90;;;;;;5067714;28;20046;-86
2021/10/07 08:40:58;;;;;;;30.95;15.18;;;12.90;99.90;;;;;;5026242;28;20028;-86
2021/10/07 08:43:25;;;;;;;54.80;23.65;;;13.10;99.90;;;;;;5034240;28;20118;-87
2021/10/07 08:45:51;;;;;;;49.80;23.00;;;13.30;99.90;;;;;;5031375;28;20550;-86
2021/10/07 08:48:17;;;;;;;51.55;23.33;;;13.40;99.90;;;;;;5031574;28;20028;-86
2021/10/07 08:50:43;;;;;;;50.17;24.33;;;13.60;99.90;;;;;;5036918;28;20074;-86
2021/10/07 08:53:08;;;;;;;51.42;22.65;;;13.60;99.90;;;;;;5033490;28;20020;-86
2021/10/07 08:55:34;;;;;;;51.47;22.25;;;13.60;99.90;;;;;;5021916;28;20083;-87
2021/10/07 08:58:00;;;;;;;56.25;26.17;;;13.70;99.90;;;;;;5034952;28;20043;-87
2021/10/07 09:00:26;;;;;;;47.33;23.77;;;13.80;99.90;;;;;;5032235;28;20028;-86
2021/10/07 09:02:51;;;;;;;42.58;21.55;;;13.90;99.90;;;;;;5033518;28;20039;-87
2021/10/07 09:05:22;;;;;;;35.40;19.05;;;14.00;99.90;;;;;;5055962;28;20044;-87
2021/10/07 09:08:02;;;;;;;40.70;20.35;;;14.20;99.90;;;;;;5035077;28;20044;-86
2021/10/07 09:10:34;;;;;;;39.65;20.20;;;14.00;99.90;;;;;;5050884;28;20046;-86
2021/10/07 09:13:21;;;;;;;38.53;20.02;;;14.10;99.90;;;;;;5050180;28;20032;-86
2021/10/07 09:15:50;;;;;;;34.28;19.35;;;14.10;99.90;;;;;;5029779;28;20032;-87
2021/10/07 09:18:17;;;;;;;39.28;20.25;;;14.10;99.90;;;;;;5034075;28;20039;-87
2021/10/07 09:20:45;;;;;;;39.25;21.00;;;14.10;99.90;;;;;;5033370;28;20488;-87
2021/10/07 09:23:18;;;;;;;33.47;17.85;;;14.20;99.90;;;;;;5044806;28;20023;-87
2021/10/07 09:26:07;;;;;;;24.00;14.77;;;14.30;99.90;;;;;;5047872;28;20043;-86
2021/10/07 09:28:52;;;;;;;26.48;15.18;;;14.30;99.90;;;;;;5066562;28;20048;-87
2021/10/07 09:31:32;;;;;;;26.27;14.88;;;14.50;99.90;;;;;;5054228;28;20017;-87
2021/10/07 09:34:02;;;;;;;24.58;14.23;;;14.50;99.90;;;;;;5037194;28;20059;-87
2021/10/07 09:36:28;;;;;;;26.73;15.55;;;14.70;99.90;;;;;;5036676;28;20040;-87
2021/10/07 09:38:54;;;;;;;26.67;14.85;;;14.60;99.90;;;;;;5037420;28;20031;-87
2021/10/07 09:41:23;;;;;;;23.70;14.88;;;14.70;99.90;;;;;;5033241;28;20035;-87
2021/10/07 09:43:52;;;;;;;22.88;13.77;;;14.90;99.90;;;;;;5059738;28;20044;-87
2021/10/07 09:46:43;;;;;;;22.58;12.55;;;15.00;99.90;;;;;;5048127;28;20036;-87
2021/10/07 09:49:09;;;;;;;23.63;11.85;;;15.10;99.90;;;;;;5044343;28;20467;-87
2021/10/07 09:51:40;;;;;;;20.48;12.77;;;15.10;99.90;;;;;;5034283;28;20024;-87
2021/10/07 09:54:09;;;;;;;16.80;10.63;;;15.30;99.90;;;;;;5039443;28;20063;-87
2021/10/07 09:56:37;;;;;;;15.63;9.52;;;15.50;99.90;;;;;;5036466;28;20498;-87
2021/10/07 09:59:07;;;;;;;15.45;10.25;;;15.70;99.90;;;;;;5039569;28;20028;-87
2021/10/07 10:01:33;;;;;;;13.93;9.02;;;15.70;99.90;;;;;;5010828;28;20055;-86
2021/10/07 10:03:59;;;;;;;15.02;9.40;;;15.80;99.90;;;;;;5038209;28;20111;-87
2021/10/07 10:06:27;;;;;;;14.02;9.60;;;15.80;99.90;;;;;;5040947;28;20031;-87
2021/10/07 10:08:56;;;;;;;16.23;9.60;;;15.80;99.90;;;;;;5038955;28;20040;-86
2021/10/07 10:11:22;;;;;;;13.07;8.27;;;15.90;99.90;;;;;;5025969;28;20031;-87
2021/10/07 10:13:48;;;;;;;11.20;8.05;;;15.80;99.90;;;;;;5035733;28;20028;-86
2021/10/07 10:16:16;;;;;;;13.45;8.55;;;15.90;99.90;;;;;;5043609;28;20028;-87
2021/10/07 10:18:44;;;;;;;12.50;8.90;;;16.00;99.90;;;;;;5038478;28;20028;-86
2021/10/07 10:21:12;;;;;;;13.27;8.52;;;16.00;99.90;;;;;;5035513;28;20025;-86
2021/10/07 10:23:37;;;;;;;13.98;8.50;;;16.10;99.90;;;;;;5037386;28;20032;-87
2021/10/07 10:26:10;;;;;;;14.80;9.55;;;16.20;99.90;;;;;;5049024;28;20031;-86
2021/10/07 10:28:45;;;;;;;16.15;9.48;;;16.30;99.90;;;;;;5037428;28;20484;-87
2021/10/07 10:31:14;;;;;;;16.05;10.43;;;16.40;99.90;;;;;;5061157;28;20047;-86
2021/10/07 10:33:47;;;;;;;17.70;9.65;;;16.40;99.90;;;;;;5037721;28;20451;-86
2021/10/07 10:36:25;;;;;;;16.30;9.95;;;16.50;99.90;;;;;;5026521;28;20025;-87
2021/10/07 10:39:05;;;;;;;14.43;9.65;;;16.60;99.90;;;;;;5064373;28;20033;-87
2021/10/07 10:42:02;;;;;;;13.77;9.30;;;16.70;99.90;;;;;;5045527;28;20020;-87
2021/10/07 10:44:45;;;;;;;;;;;16.80;99.90;;;;;;5062383;28;20024;-87
2021/10/07 10:47:16;;;;;;;14.25;8.35;;;16.90;99.90;;;;;;5048245;28;19939;-87
2021/10/07 10:49:51;;;;;;;11.48;8.30;;;17.30;99.90;;;;;;5043691;28;20024;-86
2021/10/07 10:52:30;;;;;;;13.23;8.38;;;17.20;99.90;;;;;;5075857;28;20025;-87
2021/10/07 10:55:11;;;;;;;12.10;8.50;;;17.10;99.90;;;;;;5035826;28;20547;-86
2021/10/07 10:57:41;;;;;;;13.63;8.50;;;17.10;99.90;;;;;;5062078;28;20032;-86
2021/10/07 11:00:35;;;;;;;13.93;9.30;;;17.10;99.90;;;;;;5057650;28;20396;-86
2021/10/07 11:03:10;;;;;;;11.10;7.07;;;17.00;99.90;;;;;;5050687;28;20121;-86
2021/10/07 11:05:52;;;;;;;12.07;7.13;;;17.00;99.90;;;;;;5069355;28;20059;-86
2021/10/07 11:08:19;;;;;;;11.13;8.45;;;17.10;99.90;;;;;;5038864;28;20075;-86
2021/10/07 11:10:48;;;;;;;12.63;8.23;;;17.10;99.90;;;;;;5023096;28;20036;-86
2021/10/07 11:13:17;;;;;;;12.70;7.63;;;17.10;99.90;;;;;;5038506;28;20040;-86
2021/10/07 11:15:42;;;;;;;11.75;6.70;;;17.10;99.90;;;;;;5052758;28;20039;-86
2021/10/07 11:18:17;;;;;;;9.02;6.05;;;17.30;99.90;;;;;;5038332;28;20036;-86
2021/10/07 11:20:44;;;;;;;11.40;7.30;;;17.40;99.90;;;;;;5049608;28;20117;-86
2021/10/07 11:23:15;;;;;;;11.35;6.80;;;17.50;99.90;;;;;;5043563;28;20032;-86
2021/10/07 11:25:43;;;;;;;9.10;5.72;;;18.00;99.90;;;;;;5046185;28;20442;-86
2021/10/07 11:28:09;;;;;;;5.88;4.75;;;18.60;99.90;;;;;;5038011;28;20349;-86
2021/10/07 11:30:36;;;;;;;8.18;4.75;;;19.20;99.90;;;;;;5018551;28;20043;-86
2021/10/07 11:33:02;;;;;;;5.78;4.72;;;19.00;99.90;;;;;;5029757;28;20098;-87
2021/10/07 11:35:28;;;;;;;7.05;4.72;;;18.80;99.90;;;;;;5034629;28;20036;-87
2021/10/07 11:37:56;;;;;;;9.60;5.57;;;19.30;99.90;;;;;;5044631;28;20063;-86
2021/10/07 11:40:33;;;;;;;7.65;5.18;;;19.70;99.90;;;;;;5046073;28;20037;-86
2021/10/07 11:43:05;;;;;;;6.20;4.90;;;19.30;99.90;;;;;;5046636;28;20066;-86
2021/10/07 11:45:39;;;;;;;6.55;5.03;;;19.50;99.90;;;;;;5026137;28;20025;-87
2021/10/07 11:48:07;;;;;;;8.30;5.25;;;20.00;99.90;;;;;;5043908;28;20051;-86
2021/10/07 11:50:47;;;;;;;8.75;5.75;;;19.90;99.90;;;;;;5023157;28;20111;-87
2021/10/07 11:53:15;;;;;;;6.15;5.55;;;19.20;99.90;;;;;;5025618;28;20149;-87
2021/10/07 11:55:47;;;;;;;8.75;5.75;;;18.80;99.90;;;;;;5029128;28;20157;-87
2021/10/07 11:58:13;;;;;;;7.35;5.80;;;19.90;99.90;;;;;;5033031;28;20036;-87
2021/10/07 12:00:48;;;;;;;7.10;5.70;;;20.30;99.70;;;;;;5022695;28;20039;-87
2021/10/07 12:03:31;;;;;;;6.95;5.22;;;19.70;99.90;;;;;;5050731;28;20032;-87
2021/10/07 12:06:09;;;;;;;8.48;6.55;;;19.20;99.90;;;;;;5037965;28;20028;-87
2021/10/07 12:08:44;;;;;;;6.65;5.32;;;19.00;99.90;;;;;;5030037;28;20189;-87
2021/10/07 12:11:13;;;;;;;10.77;6.88;;;19.00;99.90;;;;;;5029794;28;20054;-87
2021/10/07 12:13:40;;;;;;;8.07;5.35;;;19.10;99.90;;;;;;5045613;28;20033;-87
2021/10/07 12:16:10;;;;;;;8.93;5.53;;;19.50;99.90;;;;;;5007000;28;20100;-87
2021/10/07 12:18:39;;;;;;;7.13;5.93;;;19.40;99.90;;;;;;5023238;28;20028;-87
2021/10/07 12:21:17;;;;;;;10.65;5.85;;;19.40;99.90;;;;;;5022955;28;20032;-87
2021/10/07 12:24:09;;;;;;;7.90;5.63;;;20.00;99.90;;;;;;5035078;28;20068;-88
2021/10/07 12:26:47;;;;;;;6.32;5.60;;;19.50;99.90;;;;;;5032814;28;20063;-87
2021/10/07 12:29:31;;;;;;;6.00;4.68;;;19.30;99.90;;;;;;5060786;28;20534;-86
2021/10/07 12:32:13;;;;;;;5.07;4.55;;;19.60;99.90;;;;;;5035886;28;20039;-87
2021/10/07 12:34:42;;;;;;;6.65;4.82;;;20.40;99.90;;;;;;5003837;28;20036;-87
2021/10/07 12:37:10;;;;;;;5.07;3.95;;;21.10;98.10;;;;;;5037444;28;20480;-87
2021/10/07 12:39:39;;;;;;;5.05;4.30;;;21.60;98.40;;;;;;5037156;28;20058;-87